Time;durP1;ratioP1;P1;durP2;ratioP2;P2;SDS_P1;SDS_P2;PMS_P1;PMS_P2;Temp;Humidity;BMP_temperature;BMP_pressure;BME280_temperature;BME280_humidity;BME280_pressure;Samples;Min_cycle;Max_cycle;Signal;HPM_P1;HPM_P2
2021/10/07 00:00:21;;;;;;;12.23;8.70;;;;;;;9.15;100.00;102282.28;2613921;36;20118;-65
2021/10/07 00:02:49;;;;;;;14.70;9.45;;;;;;;9.10;100.00;102281.72;2612693;31;20045;-67
2021/10/07 00:05:20;;;;;;;16.00;9.40;;;;;;;9.04;100.00;102285.63;2612270;36;20532;-65
2021/10/07 00:07:48;;;;;;;14.38;9.75;;;;;;;9.04;100.00;102285.63;2610890;36;20041;-65
2021/10/07 00:10:17;;;;;;;15.85;9.20;;;;;;;9.04;100.00;102284.75;2612898;36;20134;-64
2021/10/07 00:12:45;;;;;;;14.98;9.75;;;;;;;9.00;100.00;102289.44;2613110;36;20114;-65
2021/10/07 00:15:13;;;;;;;19.45;10.35;;;;;;;8.97;100.00;102286.09;2613210;36;20137;-65
2021/10/07 00:17:42;;;;;;;13.13;9.40;;;;;;;9.05;100.00;102298.09;2613758;36;20030;-68
2021/10/07 00:20:13;;;;;;;12.60;8.93;;;;;;;9.12;100.00;102299.44;2613305;36;20158;-67
2021/10/07 00:22:45;;;;;;;13.52;9.93;;;;;;;9.13;100.00;102300.34;2612615;36;20034;-65
2021/10/07 00:25:15;;;;;;;18.52;10.77;;;;;;;9.10;100.00;102301.38;2612317;36;20531;-65
2021/10/07 00:27:44;;;;;;;17.70;10.15;;;;;;;9.10;100.00;102296.00;2613102;31;20141;-67
2021/10/07 00:30:16;;;;;;;14.03;9.90;;;;;;;8.91;100.00;102300.75;2612854;36;20041;-65
2021/10/07 00:32:49;;;;;;;13.88;9.43;;;;;;;8.92;100.00;102297.06;2613595;31;20545;-65
2021/10/07 00:40:53;;;;;;;18.80;10.27;;;;;;;9.02;100.00;102295.59;2613229;36;20034;-65
2021/10/07 00:43:21;;;;;;;12.55;9.40;;;;;;;9.11;100.00;102308.50;2613966;36;20130;-65
2021/10/07 00:45:53;;;;;;;13.53;10.30;;;;;;;9.17;100.00;102306.38;2614520;36;20133;-65
2021/10/07 00:48:22;;;;;;;13.35;9.88;;;;;;;9.17;100.00;102315.31;2614377;31;20629;-65
2021/10/07 00:50:51;;;;;;;12.03;8.87;;;;;;;9.20;100.00;102311.56;2614213;36;20161;-64
2021/10/07 00:53:22;;;;;;;12.77;9.45;;;;;;;9.12;100.00;102309.34;2613923;36;20122;-64
2021/10/07 00:55:51;;;;;;;12.93;8.98;;;;;;;8.99;100.00;102308.34;2613045;36;20180;-65
2021/10/07 00:58:20;;;;;;;16.03;9.87;;;;;;;8.85;100.00;102317.19;2614203;36;20096;-65
2021/10/07 01:00:48;;;;;;;11.18;8.50;;;;;;;8.86;100.00;102317.13;2613368;36;20299;-64
2021/10/07 01:03:16;;;;;;;15.55;10.35;;;;;;;8.76;100.00;102316.78;2612492;36;20200;-65
2021/10/07 01:05:45;;;;;;;12.88;9.27;;;;;;;8.68;100.00;102324.41;2613253;36;20114;-64
2021/10/07 01:08:14;;;;;;;18.13;10.57;;;;;;;8.66;100.00;102331.69;2614119;36;20154;-67
2021/10/07 01:10:44;;;;;;;10.75;8.55;;;;;;;8.64;100.00;102325.50;2612838;36;20042;-64
2021/10/07 01:13:14;;;;;;;12.27;8.57;;;;;;;8.63;100.00;102325.59;2613364;36;20088;-68
2021/10/07 01:15:44;;;;;;;10.90;8.52;;;;;;;8.52;100.00;102326.22;2614987;36;20447;-68
2021/10/07 01:18:12;;;;;;;12.65;8.75;;;;;;;8.45;100.00;102333.78;2613642;36;20041;-67
2021/10/07 01:20:43;;;;;;;12.60;9.02;;;;;;;8.33;100.00;102332.59;2614566;36;20162;-64
2021/10/07 01:23:12;;;;;;;11.95;9.05;;;;;;;8.25;100.00;102334.84;2613663;36;20041;-65
2021/10/07 01:25:40;;;;;;;11.18;8.95;;;;;;;8.29;100.00;102324.78;2612366;36;20121;-68
2021/10/07 01:28:08;;;;;;;11.13;8.75;;;;;;;8.23;100.00;102324.19;2613046;36;20658;-65
2021/10/07 01:30:37;;;;;;;10.73;8.35;;;;;;;8.26;100.00;102336.56;2614435;36;20080;-66
2021/10/07 01:33:05;;;;;;;13.00;9.10;;;;;;;8.23;100.00;102331.38;2613687;36;20162;-68
2021/10/07 01:35:33;;;;;;;13.45;9.48;;;;;;;8.14;100.00;102337.22;2613993;36;20045;-67
2021/10/07 01:38:04;;;;;;;13.07;10.13;;;;;;;8.05;100.00;102338.59;2615000;36;20536;-68
2021/10/07 01:40:32;;;;;;;13.63;9.07;;;;;;;8.06;100.00;102338.50;2613234;36;20161;-66
2021/10/07 01:43:01;;;;;;;16.10;8.80;;;;;;;8.05;100.00;102344.84;2614165;36;20147;-65
2021/10/07 01:45:29;;;;;;;12.02;8.75;;;;;;;7.99;100.00;102346.97;2614229;36;20192;-66
2021/10/07 01:47:57;;;;;;;11.10;8.18;;;;;;;7.96;100.00;102348.00;2613798;36;20080;-66
2021/10/07 01:50:25;;;;;;;14.10;8.02;;;;;;;7.94;100.00;102351.75;2613988;36;20150;-67
2021/10/07 01:52:53;;;;;;;12.95;8.73;;;;;;;7.83;100.00;102354.97;2613654;36;20122;-65
2021/10/07 01:55:25;;;;;;;11.38;8.48;;;;;;;7.85;100.00;102367.34;2613564;36;20141;-66
2021/10/07 01:57:53;;;;;;;10.90;8.00;;;;;;;7.87;100.00;102356.53;2613220;36;20587;-65
2021/10/07 02:00:21;;;;;;;14.10;9.48;;;;;;;7.84;100.00;102362.06;2614150;36;20122;-66
2021/10/07 02:02:49;;;;;;;11.85;9.60;;;;;;;7.85;100.00;102369.19;2613272;36;20022;-66
2021/10/07 02:05:18;;;;;;;16.65;11.18;;;;;;;7.76;100.00;102378.56;2614683;36;20582;-66
2021/10/07 02:07:46;;;;;;;17.27;11.43;;;;;;;7.76;100.00;102369.63;2613920;36;20034;-65
2021/10/07 02:10:17;;;;;;;16.63;11.20;;;;;;;7.81;100.00;102372.97;2613998;36;20506;-67
2021/10/07 02:12:49;;;;;;;22.40;11.90;;;;;;;7.77;100.00;102369.56;2612990;36;20058;-66
2021/10/07 02:15:19;;;;;;;18.42;10.80;;;;;;;7.80;100.00;102376.56;2614942;36;20510;-66
2021/10/07 02:17:47;;;;;;;;;;;;;;;7.75;100.00;102381.34;2614367;36;20061;-66
2021/10/07 02:20:15;;;;;;;17.63;10.45;;;;;;;7.76;100.00;102385.72;2613790;31;20025;-66
2021/10/07 02:22:43;;;;;;;19.00;11.33;;;;;;;7.74;100.00;102387.63;2613464;36;20038;-68
2021/10/07 02:25:12;;;;;;;18.13;11.13;;;;;;;7.65;100.00;102387.16;2613062;36;20850;-66
2021/10/07 02:27:41;;;;;;;14.25;9.80;;;;;;;7.66;100.00;102390.72;2614413;36;20512;-67
2021/10/07 02:30:15;;;;;;;20.27;10.60;;;;;;;7.50;100.00;102390.63;2613332;36;20451;-66
2021/10/07 02:32:44;;;;;;;16.33;9.38;;;;;;;7.50;100.00;102380.78;2613437;36;20157;-66
2021/10/07 02:35:13;;;;;;;14.27;9.13;;;;;;;7.45;100.00;102392.66;2614105;36;20140;-66
2021/10/07 02:37:42;;;;;;;19.35;9.95;;;;;;;7.47;100.00;102391.66;2613348;36;20130;-67
2021/10/07 02:40:12;;;;;;;15.25;9.35;;;;;;;7.42;100.00;102398.19;2613746;31;20536;-64
2021/10/07 02:42:41;;;;;;;14.98;9.60;;;;;;;7.39;100.00;102395.66;2613618;36;20030;-68
2021/10/07 02:45:14;;;;;;;15.02;9.57;;;;;;;7.42;100.00;102399.06;2614758;36;20134;-67
2021/10/07 02:47:42;;;;;;;17.65;10.32;;;;;;;7.37;100.00;102391.22;2613716;36;20129;-66
2021/10/07 02:52:39;;;;;;;13.70;8.95;;;;;;;7.32;100.00;102404.00;2611858;36;20030;-66
2021/10/07 02:55:08;;;;;;;16.95;10.05;;;;;;;7.18;100.00;102407.38;2612557;36;20188;-65
2021/10/07 02:57:36;;;;;;;21.52;11.25;;;;;;;7.15;100.00;102409.31;2614027;36;20942;-66
2021/10/07 03:00:05;;;;;;;20.67;11.35;;;;;;;7.19;100.00;102413.59;2613803;36;20141;-66
2021/10/07 03:02:36;;;;;;;;;;;;;;;7.22;100.00;102418.81;2613008;36;20031;-66
2021/10/07 03:05:05;;;;;;;19.40;10.55;;;;;;;7.23;100.00;102420.53;2613620;36;20034;-65
2021/10/07 03:07:34;;;;;;;24.08;11.95;;;;;;;7.29;100.00;102422.91;2613114;36;20550;-66
2021/10/07 03:10:02;;;;;;;20.23;10.50;;;;;;;7.20;100.00;102431.41;2613946;36;20038;-68
2021/10/07 03:12:30;;;;;;;21.95;10.45;;;;;;;7.19;100.00;102430.53;2613100;36;20546;-66
2021/10/07 03:14:58;;;;;;;16.25;10.23;;;;;;;7.13;100.00;102435.31;2614817;31;20747;-66
2021/10/07 03:17:27;;;;;;;21.55;10.60;;;;;;;7.01;100.00;102434.97;2613153;36;20570;-65
2021/10/07 03:19:57;;;;;;;13.85;9.23;;;;;;;7.06;100.00;102428.53;2613595;36;20069;-67
2021/10/07 03:22:26;;;;;;;15.90;8.80;;;;;;;7.05;100.00;102437.50;2613606;36;20130;-66
2021/10/07 03:24:54;;;;;;;18.43;10.10;;;;;;;7.00;100.00;102445.75;2613190;31;20527;-65
2021/10/07 03:27:23;;;;;;;19.43;9.40;;;;;;;6.92;100.00;102448.81;2614145;36;20126;-66
2021/10/07 03:29:51;;;;;;;21.55;10.30;;;;;;;6.86;100.00;102451.78;2613815;36;20031;-66
2021/10/07 03:35:02;;;;;;;26.77;11.10;;;;;;;6.93;100.00;102455.03;2612720;36;20458;-66
2021/10/07 03:37:30;;;;;;;21.88;10.88;;;;;;;7.00;100.00;102456.47;2614374;36;20511;-66
2021/10/07 03:39:58;;;;;;;45.13;13.57;;;;;;;6.95;100.00;102459.38;2614706;31;20518;-66
2021/10/07 03:42:26;;;;;;;48.78;14.40;;;;;;;6.99;100.00;102469.00;2612556;36;20154;-65
2021/10/07 03:44:55;;;;;;;21.83;11.73;;;;;;;7.05;100.00;102469.63;2614109;36;20165;-67
2021/10/07 03:47:23;;;;;;;29.15;14.88;;;;;;;7.01;100.00;102460.88;2613301;36;20168;-66
2021/10/07 03:49:53;;;;;;;24.25;13.27;;;;;;;7.02;100.00;102470.63;2613161;36;20570;-67
2021/10/07 03:52:23;;;;;;;21.65;13.82;;;;;;;7.06;100.00;102471.38;2613064;36;20126;-67
2021/10/07 03:54:52;;;;;;;28.60;14.63;;;;;;;7.05;100.00;102464.28;2613533;36;20049;-66
2021/10/07 03:57:23;;;;;;;23.73;15.30;;;;;;;7.04;100.00;102470.56;2613785;36;20496;-66
2021/10/07 03:59:51;;;;;;;50.53;15.82;;;;;;;7.04;100.00;102481.25;2613785;36;20042;-66
2021/10/07 04:02:19;;;;;;;43.38;15.50;;;;;;;7.06;100.00;102476.72;2612675;36;20122;-66
2021/10/07 04:04:48;;;;;;;85.00;18.20;;;;;;;6.97;100.00;102489.59;2613942;36;20541;-66
2021/10/07 04:07:17;;;;;;;35.42;15.60;;;;;;;7.08;100.00;102482.84;2614172;36;20034;-66
2021/10/07 04:09:47;;;;;;;40.95;15.32;;;;;;;7.00;100.00;102494.81;2613191;36;20118;-67
2021/10/07 04:12:15;;;;;;;57.55;16.95;;;;;;;6.97;100.00;102489.59;2613708;36;20138;-69
2021/10/07 04:14:44;;;;;;;32.28;15.65;;;;;;;6.89;100.00;102502.50;2615071;31;20496;-66
2021/10/07 04:17:12;;;;;;;36.08;15.88;;;;;;;6.86;100.00;102508.00;2612451;36;20125;-67
2021/10/07 04:19:40;;;;;;;39.88;17.83;;;;;;;6.82;100.00;102511.75;2614121;36;20134;-67
2021/10/07 04:22:08;;;;;;;22.27;15.88;;;;;;;6.80;100.00;102508.25;2614799;31;20161;-67
2021/10/07 04:24:37;;;;;;;27.67;15.90;;;;;;;6.88;100.00;102513.28;2613549;36;20065;-68
2021/10/07 04:27:07;;;;;;;24.50;16.90;;;;;;;6.79;100.00;102517.22;2615025;36;20038;-66
2021/10/07 04:29:36;;;;;;;21.15;15.70;;;;;;;6.70;100.00;102517.63;2613598;36;20129;-67
2021/10/07 04:32:04;;;;;;;19.90;14.68;;;;;;;6.60;100.00;102523.41;2613348;31;20117;-66
2021/10/07 04:34:33;;;;;;;20.80;15.57;;;;;;;6.56;100.00;102524.47;2613763;36;20118;-66
2021/10/07 04:37:01;;;;;;;19.50;14.68;;;;;;;6.56;100.00;102524.47;2614453;36;20130;-67
2021/10/07 04:39:29;;;;;;;17.73;14.18;;;;;;;6.60;100.00;102527.91;2614067;36;20126;-67
2021/10/07 04:41:57;;;;;;;17.10;13.07;;;;;;;6.56;100.00;102524.47;2613985;54;20035;-68
2021/10/07 04:44:28;;;;;;;18.63;14.32;;;;;;;6.53;100.00;102535.31;2615304;36;20030;-66
2021/10/07 04:46:56;;;;;;;16.05;12.85;;;;;;;6.50;100.00;102538.13;2613895;36;20114;-69
2021/10/07 04:49:25;;;;;;;18.02;12.95;;;;;;;6.45;100.00;102535.69;2614504;36;20157;-68
2021/10/07 04:51:53;;;;;;;15.48;12.70;;;;;;;6.38;100.00;102533.34;2614505;36;20062;-66
2021/10/07 04:54:21;;;;;;;15.80;12.85;;;;;;;6.40;100.00;102526.97;2613136;36;20030;-65
2021/10/07 04:56:49;;;;;;;18.95;13.18;;;;;;;6.37;100.00;102536.94;2614251;36;20134;-67
2021/10/07 04:59:18;;;;;;;20.05;13.77;;;;;;;6.37;100.00;102536.94;2614290;36;20034;-67
2021/10/07 05:01:48;;;;;;;20.25;13.77;;;;;;;6.44;100.00;102539.28;2611166;36;20169;-68
2021/10/07 05:04:17;;;;;;;19.50;13.15;;;;;;;6.35;100.00;102534.34;2612821;36;20130;-67
2021/10/07 05:06:45;;;;;;;18.83;13.07;;;;;;;6.34;100.00;102537.94;2613174;36;20045;-66
2021/10/07 05:09:13;;;;;;;17.70;12.23;;;;;;;6.31;100.00;102536.25;2613177;36;20035;-66
2021/10/07 05:11:41;;;;;;;20.13;12.20;;;;;;;6.28;100.00;102548.91;2613314;36;20586;-66
2021/10/07 05:14:09;;;;;;;20.27;12.02;;;;;;;6.29;100.00;102551.53;2614490;36;20149;-68
2021/10/07 05:16:38;;;;;;;16.88;11.68;;;;;;;6.28;100.00;102547.09;2614254;36;20118;-67
2021/10/07 05:19:09;;;;;;;17.90;11.80;;;;;;;6.19;100.00;102542.16;2613986;36;20034;-66
2021/10/07 05:21:37;;;;;;;21.42;12.25;;;;;;;6.18;100.00;102547.56;2614095;36;20558;-67
2021/10/07 05:24:06;;;;;;;14.02;10.23;;;;;;;6.15;100.00;102551.25;2613228;36;20035;-66
2021/10/07 05:26:34;;;;;;;15.82;10.52;;;;;;;6.10;100.00;102558.59;2611515;36;20114;-67
2021/10/07 05:29:02;;;;;;;13.93;10.30;;;;;;;6.07;100.00;102556.91;2613958;31;20129;-66
2021/10/07 05:31:30;;;;;;;11.98;9.68;;;;;;;6.11;100.00;102557.66;2612665;36;20638;-66
2021/10/07 05:33:59;;;;;;;12.63;9.13;;;;;;;6.08;100.00;102563.13;2614408;36;20517;-68
2021/10/07 05:36:29;;;;;;;11.20;9.23;;;;;;;6.02;100.00;102553.59;2612907;36;20046;-66
2021/10/07 05:38:58;;;;;;;15.93;9.98;;;;;;;5.96;100.00;102554.69;2612873;36;20045;-67
2021/10/07 05:41:26;;;;;;;11.45;8.93;;;;;;;5.96;100.00;102559.13;2613056;31;20121;-67
2021/10/07 05:43:54;;;;;;;13.97;8.90;;;;;;;6.02;100.00;102558.03;2613431;36;20529;-69
2021/10/07 05:46:23;;;;;;;13.27;8.75;;;;;;;5.95;100.00;102560.94;2613822;36;20454;-69
2021/10/07 05:48:51;;;;;;;12.97;9.17;;;;;;;5.96;100.00;102565.38;2614078;36;20026;-68
2021/10/07 05:51:20;;;;;;;12.07;8.85;;;;;;;5.90;100.00;102568.31;2613726;36;20174;-67
2021/10/07 05:53:50;;;;;;;11.43;8.82;;;;;;;5.82;100.00;102573.06;2610947;36;20034;-68
2021/10/07 05:56:19;;;;;;;20.30;9.93;;;;;;;5.88;100.00;102572.81;2614019;31;20523;-67
2021/10/07 05:58:47;;;;;;;12.80;8.90;;;;;;;5.87;100.00;102573.75;2615166;36;20554;-68
2021/10/07 06:01:15;;;;;;;13.77;8.73;;;;;;;5.87;100.00;102576.41;2615347;36;20031;-67
2021/10/07 06:03:44;;;;;;;12.85;8.77;;;;;;;5.88;100.00;102580.84;2615089;36;20880;-68
2021/10/07 06:06:12;;;;;;;15.52;9.10;;;;;;;5.85;100.00;102582.78;2615038;36;20110;-68
2021/10/07 06:08:40;;;;;;;12.85;8.23;;;;;;;5.91;100.00;102588.72;2615038;31;20034;-67
2021/10/07 06:11:11;;;;;;;12.27;8.55;;;;;;;5.81;100.00;102592.72;2614854;36;20138;-66
2021/10/07 06:13:39;;;;;;;11.60;8.23;;;;;;;5.79;100.00;102594.59;2615133;36;20145;-65
2021/10/07 06:16:07;;;;;;;15.88;9.15;;;;;;;5.89;100.00;102595.94;2614718;36;20547;-65
2021/10/07 06:18:36;;;;;;;15.45;8.55;;;;;;;5.91;100.00;102601.22;2615663;36;20226;-65
2021/10/07 06:21:05;;;;;;;14.02;8.95;;;;;;;5.90;100.00;102594.13;2615085;36;20034;-68
2021/10/07 06:23:33;;;;;;;13.48;8.48;;;;;;;5.92;100.00;102603.84;2614826;36;20038;-68
2021/10/07 06:26:01;;;;;;;13.75;8.57;;;;;;;6.02;100.00;102606.16;2615286;31;20129;-65
2021/10/07 06:28:32;;;;;;;13.82;8.57;;;;;;;6.05;100.00;102603.34;2614954;36;20034;-65
2021/10/07 06:31:00;;;;;;;14.75;8.57;;;;;;;6.03;100.00;102605.22;2616012;36;20150;-66
2021/10/07 06:33:30;;;;;;;16.08;8.68;;;;;;;6.09;100.00;102613.00;2615171;36;20113;-67
2021/10/07 06:35:59;;;;;;;10.25;7.80;;;;;;;6.15;100.00;102610.06;2615348;36;20053;-66
2021/10/07 06:38:27;;;;;;;17.00;8.90;;;;;;;6.01;100.00;102615.09;2615640;31;20439;-67
2021/10/07 06:40:56;;;;;;;14.02;8.30;;;;;;;6.02;100.00;102625.75;2615291;36;20038;-65
2021/10/07 06:43:24;;;;;;;11.10;7.53;;;;;;;6.18;100.00;102625.97;2615088;36;20137;-67
2021/10/07 06:45:55;;;;;;;13.18;8.52;;;;;;;6.24;100.00;102627.50;2615731;36;20162;-68
2021/10/07 06:48:23;;;;;;;12.60;7.60;;;;;;;6.31;100.00;102624.50;2615028;36;20216;-66
2021/10/07 06:50:51;;;;;;;10.68;7.40;;;;;;;6.38;100.00;102632.31;2615135;36;20081;-67
2021/10/07 06:53:20;;;;;;;8.68;6.53;;;;;;;6.44;100.00;102635.56;2615973;36;20549;-67
2021/10/07 06:55:48;;;;;;;10.63;6.80;;;;;;;6.54;100.00;102638.72;2613841;36;20034;-66
2021/10/07 06:58:18;;;;;;;12.43;8.02;;;;;;;6.57;100.00;102641.28;2615157;36;20053;-66
2021/10/07 07:00:47;;;;;;;14.68;8.23;;;;;;;6.62;100.00;102655.31;2615056;36;20045;-67
2021/10/07 07:03:18;;;;;;;;;;;;;;;6.68;100.00;102656.00;2615313;36;20027;-66
2021/10/07 07:05:48;;;;;;;15.48;8.80;;;;;;;6.83;100.00;102657.97;2614884;36;20065;-66
2021/10/07 07:08:16;;;;;;;14.27;9.38;;;;;;;6.90;100.00;102664.81;2614246;36;20041;-67
2021/10/07 07:10:44;;;;;;;16.92;9.30;;;;;;;6.88;100.00;102656.00;2614807;36;20149;-65
2021/10/07 07:13:13;;;;;;;12.68;8.52;;;;;;;7.01;100.00;102657.19;2615140;36;20126;-67
2021/10/07 07:15:41;;;;;;;12.75;8.30;;;;;;;7.04;100.00;102663.31;2615160;36;20058;-67
2021/10/07 07:18:09;;;;;;;14.63;9.98;;;;;;;7.15;100.00;102669.06;2614754;36;20109;-66
2021/10/07 07:20:40;;;;;;;16.00;9.27;;;;;;;7.24;100.00;102674.00;2615090;36;20061;-68
2021/10/07 07:23:11;;;;;;;15.45;9.60;;;;;;;7.40;100.00;102679.53;2614965;36;20631;-67
2021/10/07 07:25:39;;;;;;;12.65;8.80;;;;;;;7.57;100.00;102673.41;2615150;36;20743;-66
2021/10/07 07:28:08;;;;;;;16.73;10.37;;;;;;;7.65;100.00;102681.06;2614927;36;20657;-69
2021/10/07 07:30:36;;;;;;;20.00;10.10;;;;;;;7.77;100.00;102676.94;2615032;36;20034;-66
2021/10/07 07:33:05;;;;;;;14.88;9.00;;;;;;;7.84;100.00;102681.06;2615095;36;20066;-69
2021/10/07 07:35:34;;;;;;;18.27;10.93;;;;;;;8.01;100.00;102686.50;2614854;36;20063;-68
2021/10/07 07:38:06;;;;;;;15.77;10.50;;;;;;;8.21;100.00;102681.97;2614882;36;20872;-69
2021/10/07 07:40:36;;;;;;;19.65;10.00;;;;;;;8.31;100.00;102688.59;2614680;31;20137;-67
2021/10/07 07:43:04;;;;;;;15.05;9.52;;;;;;;8.46;100.00;102684.31;2614963;31;20634;-67
2021/10/07 07:45:33;;;;;;;19.70;9.83;;;;;;;8.64;100.00;102695.94;2614803;36;20085;-67
2021/10/07 07:48:01;;;;;;;13.85;9.30;;;;;;;8.80;100.00;102698.69;2614829;36;20166;-67
2021/10/07 07:50:30;;;;;;;16.75;9.02;;;;;;;8.96;100.00;102704.16;2615147;36;20038;-68
2021/10/07 07:52:59;;;;;;;16.27;9.90;;;;;;;9.06;100.00;102702.72;2614989;36;20084;-68
2021/10/07 07:55:30;;;;;;;14.15;10.23;;;;;;;9.17;100.00;102698.59;2615007;31;20085;-67
2021/10/07 07:57:58;;;;;;;14.05;10.95;;;;;;;9.26;100.00;102703.47;2615325;36;20133;-67
2021/10/07 08:00:26;;;;;;;16.10;11.07;;;;;;;9.42;100.00;102707.09;2614703;36;20073;-67
2021/10/07 08:02:55;;;;;;;14.32;10.10;;;;;;;9.63;100.00;102696.97;2614869;36;20630;-67
2021/10/07 08:05:23;;;;;;;12.25;10.02;;;;;;;9.64;100.00;102703.19;2614856;36;20586;-66
2021/10/07 08:07:52;;;;;;;14.30;10.00;;;;;;;9.78;100.00;102711.38;2615524;31;20472;-66
2021/10/07 08:10:21;;;;;;;14.32;10.15;;;;;;;9.98;100.00;102712.06;2614753;31;20061;-66
2021/10/07 08:12:52;;;;;;;13.15;8.77;;;;;;;10.09;100.00;102712.34;2615019;36;20166;-65
2021/10/07 08:15:21;;;;;;;11.52;8.05;;;;;;;10.42;100.00;102706.00;2615490;36;20165;-68
2021/10/07 08:17:49;;;;;;;10.05;7.47;;;;;;;10.47;100.00;102701.22;2614784;36;20154;-66
2021/10/07 08:20:19;;;;;;;10.07;6.55;;;;;;;10.57;100.00;102706.94;2614680;36;20113;-65
2021/10/07 08:22:48;;;;;;;9.23;7.07;;;;;;;10.71;100.00;102705.25;2614624;36;20054;-66
2021/10/07 08:25:19;;;;;;;9.68;7.00;;;;;;;10.88;100.00;102702.41;2614512;36;20634;-65
2021/10/07 08:27:48;;;;;;;10.55;6.60;;;;;;;10.98;100.00;102703.59;2614856;36;20062;-66
2021/10/07 08:30:20;;;;;;;7.38;6.38;;;;;;;11.07;100.00;102710.25;2615180;36;20130;-65
2021/10/07 08:32:48;;;;;;;6.72;5.45;;;;;;;11.32;100.00;102706.00;2614750;36;20177;-65
2021/10/07 08:35:17;;;;;;;9.55;6.70;;;;;;;11.37;100.00;102709.31;2614794;36;20035;-65
2021/10/07 08:37:47;;;;;;;7.82;6.70;;;;;;;11.52;100.00;102711.03;2614917;32;20677;-65
2021/10/07 08:40:16;;;;;;;7.47;6.28;;;;;;;11.70;100.00;102718.91;2614321;36;20023;-65
2021/10/07 08:42:44;;;;;;;;;;;;;;;11.79;100.00;102712.91;2614946;36;20573;-64
2021/10/07 08:45:14;;;;;;;6.20;5.60;;;;;;;12.05;100.00;102705.03;2615285;36;20057;-65
2021/10/07 08:47:47;;;;;;;8.32;6.20;;;;;;;12.20;100.00;102703.13;2615407;31;20554;-65
2021/10/07 08:50:18;;;;;;;8.02;6.20;;;;;;;12.23;100.00;102709.22;2614825;36;20065;-65
2021/10/07 08:52:46;;;;;;;12.25;7.30;;;;;;;12.26;100.00;102706.31;2615632;31;20629;-64
2021/10/07 08:55:15;;;;;;;10.48;7.07;;;;;;;12.44;100.00;102711.47;2614390;36;20122;-65
2021/10/07 08:57:44;;;;;;;12.77;6.90;;;;;;;12.48;100.00;102710.25;2614932;36;20539;-68
2021/10/07 09:00:16;;;;;;;11.00;6.65;;;;;;;12.52;100.00;102698.28;2614675;31;20046;-65
2021/10/07 09:02:46;;;;;;;8.73;6.15;;;;;;;12.52;100.00;102700.97;2613809;36;20085;-68
2021/10/07 09:05:17;;;;;;;13.15;6.90;;;;;;;12.56;100.00;102705.22;2615005;36;20622;-67
2021/10/07 09:08:00;;;;;;;8.07;5.90;;;;;;;12.50;100.00;102700.22;2616251;31;20537;-65
2021/10/07 09:10:40;;;;;;;9.55;5.63;;;;;;;12.83;100.00;102703.44;2614993;36;20030;-65
2021/10/07 09:13:11;;;;;;;7.50;5.25;;;;;;;13.08;100.00;102705.31;2615557;36;20069;-67
2021/10/07 09:15:48;;;;;;;7.80;5.03;;;;;;;13.23;100.00;102703.34;2616136;36;20114;-67
2021/10/07 09:18:20;;;;;;;7.20;5.07;;;;;;;13.38;100.00;102710.41;2615094;36;20034;-66
2021/10/07 09:20:50;;;;;;;9.65;4.80;;;;;;;13.56;100.00;102705.53;2615384;36;20109;-68
2021/10/07 09:23:20;;;;;;;5.30;4.47;;;;;;;13.49;100.00;102701.53;2615726;36;20126;-65
2021/10/07 09:25:56;;;;;;;6.40;3.72;;;;;;;13.71;100.00;102703.56;2615654;36;20065;-66
2021/10/07 09:28:25;;;;;;;3.90;3.50;;;;;;;13.64;100.00;102692.31;2615457;36;20586;-65
2021/10/07 09:30:58;;;;;;;4.30;3.30;;;;;;;13.57;100.00;102707.25;2615641;36;20034;-65
2021/10/07 09:33:40;;;;;;;4.88;3.10;;;;;;;13.65;100.00;102704.00;2615332;36;20081;-65
2021/10/07 09:36:18;;;;;;;3.83;3.08;;;;;;;13.85;100.00;102699.84;2615373;36;20026;-65
2021/10/07 09:38:48;;;;;;;4.78;2.88;;;;;;;13.94;100.00;102692.88;2615480;36;20153;-65
2021/10/07 09:41:19;;;;;;;9.75;6.43;;;;;;;13.97;100.00;102698.94;2616283;31;20030;-68
2021/10/07 09:43:50;;;;;;;7.18;6.47;;;;;;;14.20;100.00;102696.38;2615559;36;20038;-68
2021/10/07 09:46:39;;;;;;;10.38;6.75;;;;;;;14.47;100.00;102689.84;2615535;36;20034;-66
2021/10/07 09:49:11;;;;;;;7.78;6.05;;;;;;;14.52;100.00;102698.50;2615567;36;20096;-65
2021/10/07 09:51:40;;;;;;;7.85;6.35;;;;;;;14.23;100.00;102709.66;2615367;36;20114;-66
2021/10/07 09:54:09;;;;;;;7.72;5.95;;;;;;;14.37;100.00;102708.66;2615035;36;20061;-70
2021/10/07 09:56:38;;;;;;;7.65;5.20;;;;;;;14.80;100.00;102707.25;2615224;36;20615;-66
2021/10/07 09:59:11;;;;;;;12.13;6.37;;;;;;;14.95;100.00;102703.34;2615547;31;20027;-67
2021/10/07 10:01:40;;;;;;;9.13;7.18;;;;;;;15.09;100.00;102696.84;2615137;36;20566;-66
2021/10/07 10:04:12;;;;;;;9.32;7.20;;;;;;;15.36;100.00;102698.34;2615353;31;20519;-68
2021/10/07 10:06:42;;;;;;;8.60;6.28;;;;;;;15.56;100.00;102702.16;2615396;36;20084;-66
2021/10/07 10:09:10;;;;;;;18.15;10.55;;;;;;;15.29;100.00;102705.25;2614959;36;20141;-67
2021/10/07 10:11:38;;;;;;;15.80;8.98;;;;;;;15.42;100.00;102706.84;2615045;36;20069;-68
2021/10/07 10:14:07;;;;;;;7.85;6.40;;;;;;;15.72;100.00;102699.94;2615273;36;20129;-66
2021/10/07 10:16:38;;;;;;;6.53;4.73;;;;;;;15.45;100.00;102703.03;2614562;36;20179;-66
2021/10/07 10:19:11;;;;;;;7.00;5.22;;;;;;;15.55;100.00;102703.16;2615388;36;20410;-68
2021/10/07 10:21:42;;;;;;;6.90;5.60;;;;;;;15.70;100.00;102701.91;2615129;36;20042;-66
2021/10/07 10:24:12;;;;;;;6.80;5.15;;;;;;;15.81;100.00;102703.81;2615324;31;20650;-66
2021/10/07 10:26:41;;;;;;;7.07;4.80;;;;;;;15.54;100.00;102712.28;2615083;36;20042;-66
2021/10/07 10:29:21;;;;;;;6.05;5.30;;;;;;;15.29;100.00;102711.53;2615437;36;20031;-66
2021/10/07 10:31:53;;;;;;;3.90;1.60;;;;;;;15.32;100.00;102708.56;2615633;36;20574;-66
2021/10/07 10:34:25;;;;;;;2.22;1.40;;;;;;;15.63;100.00;102710.69;2615530;36;20035;-68
2021/10/07 10:36:55;;;;;;;2.47;1.42;;;;;;;15.89;100.00;102714.03;2615504;36;20113;-65
2021/10/07 10:39:29;;;;;;;5.05;1.60;;;;;;;15.66;100.00;102708.56;2615159;31;20080;-66
2021/10/07 10:42:00;;;;;;;2.70;1.60;;;;;;;15.52;100.00;102712.41;2615049;36;20030;-66
2021/10/07 10:44:45;;;;;;;2.75;1.20;;;;;;;16.04;100.00;102715.47;2614744;36;20516;-65
2021/10/07 10:47:23;;;;;;;2.50;1.55;;;;;;;15.86;100.00;102717.00;2615839;36;20539;-69
2021/10/07 10:50:02;;;;;;;2.17;1.30;;;;;;;15.75;100.00;102717.81;2615380;36;20037;-66
2021/10/07 10:52:33;;;;;;;6.05;1.58;;;;;;;15.85;100.00;102726.13;2615203;36;20068;-67
2021/10/07 10:55:03;;;;;;;2.63;1.52;;;;;;;15.98;100.00;102732.28;2614606;36;20200;-66
2021/10/07 10:57:35;;;;;;;3.50;1.60;;;;;;;15.89;100.00;102733.03;2614897;36;20157;-65
2021/10/07 11:00:12;;;;;;;3.97;1.35;;;;;;;16.20;100.00;102727.78;2615489;31;20125;-66
2021/10/07 11:02:41;;;;;;;2.30;1.33;;;;;;;16.13;100.00;102734.72;2614743;36;20145;-65
2021/10/07 11:05:21;;;;;;;5.63;1.73;;;;;;;15.69;100.00;102735.47;2615921;31;20068;-65
2021/10/07 11:08:10;;;;;;;4.15;1.77;;;;;;;16.00;100.00;102741.16;2615512;36;20086;-67
2021/10/07 11:10:40;;;;;;;6.72;1.70;;;;;;;16.27;100.00;102742.59;2614367;36;20061;-67
2021/10/07 11:13:15;;;;;;;2.58;1.40;;;;;;;16.11;100.00;102745.72;2615136;36;20161;-66
2021/10/07 11:15:44;;;;;;;3.05;1.55;;;;;;;15.26;100.00;102741.59;2615245;36;20034;-66
2021/10/07 11:18:12;;;;;;;1.73;1.33;;;;;;;15.40;100.00;102746.81;2614856;36;20085;-65
2021/10/07 11:20:43;;;;;;;2.20;1.50;;;;;;;15.42;100.00;102752.97;2614933;31;20034;-65
2021/10/07 11:23:15;;;;;;;1.90;1.40;;;;;;;15.57;100.00;102744.59;2615368;36;20170;-69
2021/10/07 11:25:50;;;;;;;3.60;1.48;;;;;;;15.96;100.00;102747.84;2614690;36;20035;-66
2021/10/07 11:28:19;;;;;;;2.45;1.90;;;;;;;16.24;100.00;102743.72;2614836;36;20037;-65
2021/10/07 11:30:48;;;;;;;4.38;1.70;;;;;;;16.56;100.00;102736.56;2614954;36;20023;-65
2021/10/07 11:33:16;;;;;;;3.00;1.50;;;;;;;16.44;100.00;102731.19;2614785;36;20080;-65
2021/10/07 11:35:47;;;;;;;2.63;1.30;;;;;;;15.53;100.00;102743.13;2614819;36;20189;-65